Time;durP1;ratioP1;P1;durP2;ratioP2;P2;SDS_P1;SDS_P2;PMS_P1;PMS_P2;Temp;Humidity;BMP_temperature;BMP_pressure;BME280_temperature;BME280_humidity;BME280_pressure;Samples;Min_cycle;Max_cycle;Signal;HPM_P1;HPM_P2
2022/10/06 00:00:45;;;;;;;6.28;0.73;;;;;;;13.84;73.85;102211.19;5036119;28;96800;-30
2022/10/06 00:03:11;;;;;;;2.40;0.40;;;;;;;13.83;73.76;102218.47;5033975;28;100953;-31
2022/10/06 00:05:36;;;;;;;1.90;0.70;;;;;;;13.79;73.34;102215.03;5034193;28;100804;-31
2022/10/06 00:08:02;;;;;;;2.95;0.73;;;;;;;13.80;73.65;102229.53;5035797;27;96736;-31
2022/10/06 00:10:28;;;;;;;2.35;0.55;;;;;;;13.78;73.42;102239.63;5035853;27;96802;-30
2022/10/06 00:12:53;;;;;;;2.22;0.57;;;;;;;13.75;73.81;102246.13;5034037;28;100901;-31
2022/10/06 00:15:22;;;;;;;3.55;0.65;;;;;;;13.75;73.00;102239.78;5035515;28;99677;-29
2022/10/06 00:17:48;;;;;;;5.85;1.00;;;;;;;13.70;73.53;102240.00;5033613;27;96799;-31
2022/10/06 00:20:14;;;;;;;2.10;0.50;;;;;;;13.69;73.01;102251.00;5034398;28;96860;-30
2022/10/06 00:22:43;;;;;;;7.97;0.63;;;;;;;13.71;73.24;102265.44;5034821;28;97484;-32
2022/10/06 00:25:10;;;;;;;6.43;0.70;;;;;;;13.69;73.19;102275.50;5033862;28;100823;-30
2022/10/06 00:27:39;;;;;;;2.92;0.32;;;;;;;13.67;72.96;102286.47;5034022;28;97863;-30
2022/10/06 00:30:08;;;;;;;2.05;0.45;;;;;;;13.70;73.27;102285.44;5034029;28;96805;-31
2022/10/06 00:32:33;;;;;;;0.60;0.30;;;;;;;13.70;73.36;102288.16;5033835;28;101192;-30
2022/10/06 00:34:59;;;;;;;6.22;0.65;;;;;;;13.70;73.38;102297.19;5035202;28;97773;-30
2022/10/06 00:37:25;;;;;;;3.85;0.63;;;;;;;13.70;72.70;102294.47;5035275;28;96609;-31
2022/10/06 00:39:51;;;;;;;6.90;0.68;;;;;;;13.67;72.55;102293.78;5034252;28;96897;-30
2022/10/06 00:42:24;;;;;;;1.70;0.55;;;;;;;13.65;72.31;102296.56;5035208;28;98040;-32
2022/10/06 00:44:50;;;;;;;5.40;0.63;;;;;;;13.65;72.81;102312.91;5035146;28;97193;-31
2022/10/06 00:47:17;;;;;;;3.53;0.70;;;;;;;13.65;72.45;102323.78;5034461;27;96658;-33
2022/10/06 00:49:44;;;;;;;6.07;0.70;;;;;;;13.61;72.62;102314.03;5033842;28;96909;-30
2022/10/06 00:52:15;;;;;;;5.07;0.60;;;;;;;13.63;72.41;102333.88;5033456;28;100927;-30
2022/10/06 00:54:41;;;;;;;2.78;0.73;;;;;;;13.59;72.61;102311.38;5033443;28;100831;-30
2022/10/06 00:57:07;;;;;;;0.20;0.10;;;;;;;13.53;72.61;102330.72;5033146;28;96720;-30
2022/10/06 00:59:33;;;;;;;5.85;0.93;;;;;;;13.52;72.11;102333.56;5033584;28;96909;-30
2022/10/06 01:02:02;;;;;;;0.73;0.25;;;;;;;13.50;71.66;102332.75;5033301;28;101189;-32
2022/10/06 01:04:34;;;;;;;4.07;0.60;;;;;;;13.51;71.85;102343.53;5033722;28;100986;-30
2022/10/06 01:07:00;;;;;;;;;;;;;;;13.48;71.46;102349.16;5034168;28;96578;-30
2022/10/06 01:09:27;;;;;;;1.73;0.35;;;;;;;13.46;71.64;102356.50;5034800;28;96938;-30
2022/10/06 01:11:56;;;;;;;3.42;0.65;;;;;;;13.45;71.58;102354.75;5032725;28;101056;-30
2022/10/06 01:14:24;;;;;;;3.30;0.65;;;;;;;13.42;71.46;102363.06;5034295;28;97157;-30
2022/10/06 01:16:57;;;;;;;2.40;0.40;;;;;;;13.45;71.28;102356.59;5032879;28;96812;-30
2022/10/06 01:19:28;;;;;;;1.88;0.55;;;;;;;13.44;71.43;102369.28;5033403;28;96861;-32
2022/10/06 01:21:56;;;;;;;9.15;0.90;;;;;;;13.42;71.91;102371.25;5033218;28;98470;-30
2022/10/06 01:24:22;;;;;;;0.82;0.32;;;;;;;13.40;71.69;102375.88;5034147;27;99129;-30
2022/10/06 01:26:50;;;;;;;3.00;0.47;;;;;;;13.36;71.63;102376.97;5034562;28;96502;-30
2022/10/06 01:29:16;;;;;;;2.58;0.73;;;;;;;13.37;71.71;102389.59;5033700;28;96829;-30
2022/10/06 01:31:41;;;;;;;2.25;0.65;;;;;;;13.33;71.93;102385.28;5032946;28;100777;-31
2022/10/06 01:34:08;;;;;;;3.20;0.50;;;;;;;13.30;71.86;102377.25;5034398;28;97259;-30
2022/10/06 01:36:33;;;;;;;1.55;0.68;;;;;;;13.29;72.13;102390.00;5032785;28;96677;-30
2022/10/06 01:38:59;;;;;;;4.22;0.55;;;;;;;13.32;72.11;102391.69;5034276;28;96847;-30
2022/10/06 01:41:26;;;;;;;2.35;0.60;;;;;;;13.27;71.47;102394.63;5034497;27;99741;-31
2022/10/06 01:43:52;;;;;;;5.47;0.68;;;;;;;13.28;71.50;102400.97;5032871;28;100580;-30
2022/10/06 01:46:17;;;;;;;1.15;0.45;;;;;;;13.26;71.78;102402.84;5034984;28;96474;-30
2022/10/06 01:48:42;;;;;;;0.45;0.13;;;;;;;13.25;71.08;102412.84;5034546;28;96841;-31
2022/10/06 01:51:12;;;;;;;1.50;0.47;;;;;;;13.25;71.38;102417.38;5033922;28;100696;-31
2022/10/06 01:53:38;;;;;;;3.10;0.40;;;;;;;13.21;71.34;102407.63;5034481;27;97842;-30
2022/10/06 01:56:03;;;;;;;3.30;0.57;;;;;;;13.18;71.59;102412.25;5034065;28;100388;-30
2022/10/06 01:58:28;;;;;;;4.05;0.35;;;;;;;13.19;70.78;102418.56;5034535;28;96789;-30
2022/10/06 02:00:54;;;;;;;4.32;0.45;;;;;;;13.18;71.38;102417.69;5033595;28;97943;-30
2022/10/06 02:03:19;;;;;;;2.50;0.32;;;;;;;13.17;71.89;102423.19;5034284;28;101735;-30
2022/10/06 02:05:45;;;;;;;5.97;0.68;;;;;;;13.15;72.00;102420.53;5034480;28;96651;-30
2022/10/06 02:08:10;;;;;;;1.45;0.22;;;;;;;13.15;71.92;102428.69;5034172;27;96881;-31
2022/10/06 02:10:35;;;;;;;1.20;0.40;;;;;;;13.14;71.56;102421.50;5037432;27;97431;-31
2022/10/06 02:13:01;;;;;;;1.92;0.50;;;;;;;13.08;71.08;102431.78;5037451;28;97802;-30
2022/10/06 02:15:27;;;;;;;1.55;0.38;;;;;;;13.06;71.06;102440.03;5035944;28;96511;-30
2022/10/06 02:17:53;;;;;;;0.47;0.28;;;;;;;13.12;71.41;102439.75;5037792;28;96849;-30
2022/10/06 02:20:19;;;;;;;1.65;0.50;;;;;;;13.14;71.33;102448.72;5035825;28;101008;-32
2022/10/06 02:22:44;;;;;;;4.07;0.30;;;;;;;13.10;71.71;102452.53;5037261;28;97281;-30
2022/10/06 02:25:13;;;;;;;1.65;0.55;;;;;;;13.12;71.39;102449.75;5037108;28;96457;-30
2022/10/06 02:27:39;;;;;;;7.88;0.73;;;;;;;13.10;71.66;102455.25;5035930;27;96570;-31
2022/10/06 02:30:06;;;;;;;3.25;0.57;;;;;;;13.08;71.25;102454.44;5037210;28;98055;-30
2022/10/06 02:32:38;;;;;;;6.30;0.82;;;;;;;13.08;71.57;102453.56;5035543;28;102459;-31
2022/10/06 02:35:05;;;;;;;2.08;0.47;;;;;;;13.06;71.94;102450.00;5035902;28;96670;-33
2022/10/06 02:37:31;;;;;;;1.20;0.60;;;;;;;13.04;71.61;102461.00;5035761;28;96875;-30
2022/10/06 02:39:56;;;;;;;2.85;0.57;;;;;;;13.08;71.70;102469.88;5037143;27;98154;-29
2022/10/06 02:42:22;;;;;;;0.82;0.47;;;;;;;13.10;71.52;102478.84;5037342;28;97750;-30
2022/10/06 02:44:49;;;;;;;2.00;0.60;;;;;;;13.11;71.95;102483.38;5037127;28;96526;-30
2022/10/06 02:47:14;;;;;;;2.92;0.57;;;;;;;13.09;71.77;102488.00;5037208;27;96777;-30
2022/10/06 02:49:40;;;;;;;5.07;0.95;;;;;;;13.07;71.38;102482.59;5036150;27;99193;-31
2022/10/06 02:52:05;;;;;;;3.85;0.50;;;;;;;13.11;71.78;102502.41;5036790;27;97852;-32
2022/10/06 02:54:31;;;;;;;3.03;0.30;;;;;;;13.09;71.85;102497.03;5037568;28;96613;-32
2022/10/06 02:56:57;;;;;;;3.47;0.60;;;;;;;13.09;71.76;102507.03;5037063;27;96795;-31
2022/10/06 02:59:22;;;;;;;5.80;0.47;;;;;;;13.07;71.81;102509.81;5036361;28;110024;-31
2022/10/06 03:01:47;;;;;;;0.88;0.50;;;;;;;13.07;71.55;102512.53;5036529;27;99266;-30
2022/10/06 03:04:13;;;;;;;4.18;0.95;;;;;;;13.09;71.64;102512.47;5037047;28;96481;-31
2022/10/06 03:06:38;;;;;;;5.07;0.90;;;;;;;13.04;71.70;102522.66;5036682;28;101781;-30
2022/10/06 03:09:06;;;;;;;1.65;0.50;;;;;;;13.02;71.59;102514.56;5036053;27;111041;-30
2022/10/06 03:11:36;;;;;;;2.45;0.63;;;;;;;13.03;71.63;102521.78;5035113;28;99845;-31
2022/10/06 03:14:03;;;;;;;3.70;0.70;;;;;;;13.02;71.85;102524.59;5034601;28;96958;-30
2022/10/06 03:16:33;;;;;;;2.63;0.65;;;;;;;13.00;71.32;102530.09;5034606;28;96781;-33
2022/10/06 03:18:59;;;;;;;1.15;0.50;;;;;;;13.00;71.82;102529.22;5034838;28;101038;-30
2022/10/06 03:21:28;;;;;;;3.97;0.32;;;;;;;12.96;71.51;102525.72;5034547;27;100821;-30
2022/10/06 03:23:55;;;;;;;3.97;0.60;;;;;;;13.00;71.59;102542.81;5035202;27;96600;-30
2022/10/06 03:26:26;;;;;;;3.85;0.70;;;;;;;12.95;70.93;102546.59;5035073;28;96809;-30
2022/10/06 03:28:51;;;;;;;3.92;0.50;;;;;;;12.96;71.27;102547.47;5034734;28;101008;-30
2022/10/06 03:31:17;;;;;;;6.13;0.35;;;;;;;12.94;71.20;102561.16;5036340;28;99389;-30
2022/10/06 03:33:42;;;;;;;2.05;0.73;;;;;;;12.92;71.39;102559.47;5036120;27;96665;-30
2022/10/06 03:36:13;;;;;;;3.20;0.50;;;;;;;12.91;71.10;102571.28;5036610;28;96782;-32
2022/10/06 03:38:39;;;;;;;2.80;0.52;;;;;;;12.91;71.26;102566.72;5034025;28;100906;-30
2022/10/06 03:41:10;;;;;;;6.03;1.00;;;;;;;12.91;71.17;102566.72;5035861;28;99112;-30
2022/10/06 03:43:36;;;;;;;2.83;0.65;;;;;;;12.89;71.16;102567.75;5034918;28;96663;-30
2022/10/06 03:46:03;;;;;;;2.63;0.38;;;;;;;12.89;71.19;102579.50;5034763;28;96909;-30
2022/10/06 03:48:32;;;;;;;3.25;0.30;;;;;;;12.90;71.06;102574.97;5034420;28;100882;-30
2022/10/06 03:50:59;;;;;;;5.80;0.47;;;;;;;12.90;71.62;102572.25;5034523;28;100929;-31
2022/10/06 03:53:27;;;;;;;1.80;0.40;;;;;;;12.89;71.42;102586.78;5036104;27;96527;-30
2022/10/06 03:56:06;;;;;;;4.63;0.65;;;;;;;12.87;71.44;102591.41;5034968;28;96892;-30
2022/10/06 03:58:34;;;;;;;4.75;0.60;;;;;;;12.85;71.66;102594.22;5034117;28;101146;-31
2022/10/06 04:01:15;;;;;;;3.95;0.50;;;;;;;12.83;71.45;102596.09;5034161;28;101402;-30
2022/10/06 04:03:40;;;;;;;6.72;0.75;;;;;;;12.80;71.58;102596.25;5035870;28;96651;-30
2022/10/06 04:06:11;;;;;;;7.63;0.55;;;;;;;12.78;71.52;102605.41;5036208;28;96874;-30
2022/10/06 04:08:37;;;;;;;2.75;0.25;;;;;;;12.75;71.77;102610.03;5034197;28;100998;-30
2022/10/06 04:11:11;;;;;;;1.95;0.75;;;;;;;12.79;71.52;102610.78;5034078;28;101427;-31
2022/10/06 04:13:38;;;;;;;2.10;0.50;;;;;;;12.74;71.86;102616.41;5034096;28;96787;-31
2022/10/06 04:16:17;;;;;;;3.42;0.40;;;;;;;12.75;71.89;102623.63;5033953;28;96915;-31
2022/10/06 04:18:44;;;;;;;2.08;0.50;;;;;;;12.73;71.75;102614.66;5035562;28;97688;-30
2022/10/06 04:21:11;;;;;;;2.05;0.35;;;;;;;12.72;71.93;102623.72;5034420;28;100895;-31
2022/10/06 04:23:36;;;;;;;5.18;0.55;;;;;;;12.74;71.94;102630.00;5034109;28;96859;-30
2022/10/06 04:26:08;;;;;;;1.20;0.40;;;;;;;12.74;71.79;102635.44;5035627;28;96869;-30
2022/10/06 04:28:35;;;;;;;2.92;0.60;;;;;;;12.73;71.89;102628.25;5033527;28;101304;-32
2022/10/06 04:31:01;;;;;;;0.60;0.35;;;;;;;12.65;71.84;102632.22;5033460;27;100998;-32
2022/10/06 04:33:27;;;;;;;11.23;0.88;;;;;;;12.68;72.11;102638.44;5035517;28;96646;-31
2022/10/06 04:36:00;;;;;;;6.72;1.00;;;;;;;12.69;72.08;102650.19;5034079;28;96802;-30
2022/10/06 04:38:27;;;;;;;4.88;0.98;;;;;;;12.64;71.95;102641.34;5035108;28;98090;-30
2022/10/06 04:40:52;;;;;;;0.80;0.43;;;;;;;12.60;71.88;102642.41;5033549;28;100993;-30
2022/10/06 04:43:18;;;;;;;2.78;0.45;;;;;;;12.58;72.23;102642.47;5035586;28;96502;-31
2022/10/06 04:45:43;;;;;;;4.28;0.82;;;;;;;12.59;71.73;102652.41;5035828;28;96800;-30
2022/10/06 04:48:08;;;;;;;5.85;0.55;;;;;;;12.60;71.70;102654.16;5035033;28;97846;-31
2022/10/06 04:50:34;;;;;;;1.73;0.50;;;;;;;12.61;72.36;102658.66;5034566;28;104402;-30
2022/10/06 04:52:59;;;;;;;5.13;0.52;;;;;;;12.60;71.97;102658.72;5034971;27;96455;-32
2022/10/06 04:55:24;;;;;;;4.03;1.10;;;;;;;12.57;71.83;102664.28;5035368;28;96787;-30
2022/10/06 04:57:50;;;;;;;4.10;0.60;;;;;;;12.52;72.16;102672.63;5034738;28;99327;-30
2022/10/06 05:00:21;;;;;;;4.07;0.52;;;;;;;12.53;72.16;102668.94;5034642;28;107245;-31
2022/10/06 05:02:47;;;;;;;6.15;0.82;;;;;;;12.47;71.97;102664.66;5033887;28;96721;-30
2022/10/06 05:05:12;;;;;;;2.67;0.65;;;;;;;12.45;72.14;102673.81;5034835;28;96861;-31
2022/10/06 05:07:37;;;;;;;2.28;0.40;;;;;;;12.45;72.29;102684.69;5034569;28;98796;-30
2022/10/06 05:10:03;;;;;;;3.38;0.70;;;;;;;12.43;72.37;102687.47;5035074;28;97837;-30
2022/10/06 05:12:30;;;;;;;1.38;0.40;;;;;;;12.43;72.28;102694.75;5035393;28;96471;-29
2022/10/06 05:14:56;;;;;;;4.70;0.68;;;;;;;12.39;72.26;102693.97;5034791;27;96754;-30
2022/10/06 05:17:22;;;;;;;2.47;0.57;;;;;;;12.43;72.34;102700.19;5032296;28;99307;-30
2022/10/06 05:19:47;;;;;;;5.95;0.45;;;;;;;12.38;72.33;102689.47;5034327;27;97594;-30
2022/10/06 05:22:12;;;;;;;1.27;0.47;;;;;;;12.39;72.24;102696.69;5034529;28;100558;-30
2022/10/06 05:24:37;;;;;;;2.15;0.40;;;;;;;12.39;72.22;102709.38;5034664;28;96870;-31
2022/10/06 05:27:03;;;;;;;3.83;0.35;;;;;;;12.35;72.39;102707.72;5034275;27;109706;-30
2022/10/06 05:29:28;;;;;;;3.30;0.60;;;;;;;12.35;72.44;102715.88;5033988;28;99269;-30
2022/10/06 05:31:54;;;;;;;1.00;0.43;;;;;;;12.35;72.52;102719.50;5034856;28;96539;-30
2022/10/06 05:34:20;;;;;;;1.90;0.52;;;;;;;12.30;72.59;102725.13;5034568;28;96796;-35
2022/10/06 05:36:46;;;;;;;1.73;0.52;;;;;;;12.27;72.68;102719.78;5032612;28;101152;-30
2022/10/06 05:39:11;;;;;;;2.50;0.55;;;;;;;12.27;72.54;102732.47;5033934;28;98743;-30
2022/10/06 05:41:37;;;;;;;1.50;0.73;;;;;;;12.27;72.90;102736.09;5034261;28;96503;-31
2022/10/06 05:44:02;;;;;;;2.55;0.80;;;;;;;12.26;73.29;102738.88;5037029;27;96734;-31
2022/10/06 05:46:30;;;;;;;9.43;0.88;;;;;;;12.25;73.20;102740.72;5037757;28;98816;-30
2022/10/06 05:48:57;;;;;;;28.27;2.00;;;;;;;12.23;73.34;102745.31;5070227;27;100813;-31
2022/10/06 05:51:28;;;;;;;7.55;1.23;;;;;;;12.22;73.24;102745.38;5036507;27;97247;-30
2022/10/06 05:53:53;;;;;;;4.90;0.82;;;;;;;12.23;73.70;102752.59;5036888;28;96850;-30
2022/10/06 05:56:22;;;;;;;4.25;0.45;;;;;;;12.21;73.73;102755.34;5037875;27;97977;-30
2022/10/06 05:58:50;;;;;;;4.43;0.73;;;;;;;12.19;73.79;102757.25;5070613;27;100807;-31
2022/10/06 06:01:23;;;;;;;3.38;0.90;;;;;;;12.18;73.95;102776.31;5036627;27;96664;-31
2022/10/06 06:03:51;;;;;;;1.88;0.63;;;;;;;12.17;73.72;102764.56;5037951;28;96804;-30
2022/10/06 06:06:20;;;;;;;0.80;0.40;;;;;;;12.16;73.77;102773.66;5035585;28;100812;-30
2022/10/06 06:08:50;;;;;;;5.45;1.38;;;;;;;12.15;73.90;102766.44;5037417;28;97453;-31
2022/10/06 06:11:15;;;;;;;4.00;1.05;;;;;;;12.13;73.79;102767.44;5037668;28;96598;-30
2022/10/06 06:13:41;;;;;;;2.30;0.57;;;;;;;12.13;74.22;102767.44;5037619;28;96854;-30
2022/10/06 06:16:12;;;;;;;6.18;0.80;;;;;;;12.11;74.09;102764.81;5036589;27;99260;-31
2022/10/06 06:18:38;;;;;;;6.35;1.38;;;;;;;12.13;74.08;102770.16;5035976;28;100931;-30
2022/10/06 06:21:06;;;;;;;3.78;0.93;;;;;;;12.13;74.17;102772.88;5037451;28;96558;-31
2022/10/06 06:23:34;;;;;;;5.65;1.15;;;;;;;12.11;74.22;102768.41;5036530;28;96853;-30
2022/10/06 06:26:03;;;;;;;5.65;1.30;;;;;;;12.11;74.21;102784.69;5035837;28;100885;-30
2022/10/06 06:28:29;;;;;;;6.53;1.00;;;;;;;12.10;74.31;102784.75;5035685;28;100981;-30
2022/10/06 06:31:08;;;;;;;1.52;0.70;;;;;;;12.14;74.52;102794.56;5036768;28;96407;-30
2022/10/06 06:33:38;;;;;;;5.05;0.80;;;;;;;12.09;74.58;102793.84;5037310;28;96670;-31
2022/10/06 06:36:15;;;;;;;4.32;0.40;;;;;;;12.06;74.47;102802.09;5035649;28;101168;-33
2022/10/06 06:38:42;;;;;;;5.28;1.00;;;;;;;12.07;74.49;102809.31;5035258;28;100815;-30
2022/10/06 06:41:15;;;;;;;2.65;0.50;;;;;;;12.09;74.60;102812.88;5035844;27;96874;-30
2022/10/06 06:43:41;;;;;;;5.07;0.90;;;;;;;12.10;74.61;102810.06;5035924;28;96550;-30
2022/10/06 06:46:07;;;;;;;5.07;0.50;;;;;;;12.08;74.59;102817.41;5036882;27;99477;-30
2022/10/06 06:48:34;;;;;;;8.43;0.90;;;;;;;12.10;74.53;102818.22;5037039;27;98962;-30
2022/10/06 06:51:00;;;;;;;2.95;0.63;;;;;;;12.10;74.73;102830.94;5035872;28;96566;-30
2022/10/06 06:53:25;;;;;;;3.20;0.68;;;;;;;12.09;75.18;102834.59;5037080;27;96912;-30
2022/10/06 06:55:50;;;;;;;2.80;0.63;;;;;;;12.10;74.97;102839.94;5035781;27;97415;-30
2022/10/06 06:58:19;;;;;;;6.78;0.52;;;;;;;12.09;74.72;102837.31;5036882;28;98399;-30
2022/10/06 07:00:47;;;;;;;2.35;0.73;;;;;;;12.09;75.16;102856.34;5035520;28;96612;-29
2022/10/06 07:03:14;;;;;;;1.83;0.50;;;;;;;12.11;75.17;102857.16;5035459;28;96799;-31
2022/10/06 07:05:39;;;;;;;3.10;0.68;;;;;;;12.14;75.15;102853.44;5036391;28;99864;-30
2022/10/06 07:08:09;;;;;;;3.92;0.90;;;;;;;12.18;75.22;102861.44;5036272;27;99041;-30
2022/10/06 07:10:35;;;;;;;6.20;0.75;;;;;;;12.21;75.11;102872.19;5035603;28;96698;-31
2022/10/06 07:13:01;;;;;;;4.03;0.52;;;;;;;12.24;74.66;102874.78;5035688;28;96805;-31
2022/10/06 07:26:22;;;;;;;4.05;0.90;;;;;;;12.43;74.82;102883.16;5035722;28;96435;-30
2022/10/06 07:28:48;;;;;;;1.25;0.30;;;;;;;12.45;75.03;102893.97;5035984;28;105897;-30
2022/10/06 07:31:16;;;;;;;1.30;0.45;;;;;;;12.47;75.08;102892.09;5036283;28;96592;-30
2022/10/06 07:33:42;;;;;;;2.33;0.45;;;;;;;12.50;74.71;102894.69;5035125;28;96848;-31
2022/10/06 07:36:07;;;;;;;3.08;0.35;;;;;;;12.56;74.66;102896.28;5036028;28;99482;-31
2022/10/06 07:38:33;;;;;;;4.72;0.73;;;;;;;12.53;74.77;102891.84;5034755;28;101813;-30
2022/10/06 07:40:58;;;;;;;3.20;0.52;;;;;;;12.57;74.73;102901.69;5036419;28;96558;-32
2022/10/06 07:43:23;;;;;;;4.55;0.65;;;;;;;12.60;74.52;102904.28;5036411;27;96682;-30
2022/10/06 07:45:49;;;;;;;2.30;0.60;;;;;;;12.66;74.55;102912.22;5035609;27;97858;-30
2022/10/06 07:48:20;;;;;;;1.67;0.60;;;;;;;12.68;74.68;102920.31;5035691;28;98673;-30
2022/10/06 07:50:48;;;;;;;2.05;0.75;;;;;;;12.70;74.35;102916.63;5036254;28;96574;-29
2022/10/06 07:53:15;;;;;;;3.33;1.00;;;;;;;12.75;74.22;102920.03;5034650;28;96893;-30
2022/10/06 07:55:43;;;;;;;2.70;0.50;;;;;;;12.81;74.48;102926.19;5034370;28;101534;-30
2022/10/06 07:58:14;;;;;;;6.40;1.48;;;;;;;12.80;74.54;102922.59;5034325;28;100774;-31
2022/10/06 08:00:40;;;;;;;1.08;0.32;;;;;;;12.81;74.26;102934.34;5036353;28;96831;-30
2022/10/06 08:03:07;;;;;;;4.22;0.80;;;;;;;12.86;74.21;102935.06;5035028;28;96926;-30
2022/10/06 08:05:32;;;;;;;1.42;0.50;;;;;;;12.85;74.31;102942.34;5035623;28;97593;-30
2022/10/06 08:07:57;;;;;;;6.18;0.73;;;;;;;12.88;74.26;102944.94;5034526;28;97740;-30
2022/10/06 08:10:24;;;;;;;1.33;0.40;;;;;;;12.93;74.52;102950.19;5035698;28;96606;-30
2022/10/06 08:12:49;;;;;;;3.38;0.40;;;;;;;12.96;74.11;102953.69;5034319;28;96927;-30
2022/10/06 08:15:15;;;;;;;1.55;0.30;;;;;;;12.98;73.69;102945.47;5035162;28;99479;-30
2022/10/06 08:17:40;;;;;;;1.05;0.45;;;;;;;13.06;74.17;102942.44;5033568;28;101330;-30
2022/10/06 08:20:09;;;;;;;5.65;0.47;;;;;;;13.10;74.32;102955.88;5036074;28;96499;-30
2022/10/06 08:22:35;;;;;;;0.35;0.25;;;;;;;13.13;73.94;102960.31;5035614;28;96864;-30
2022/10/06 08:25:00;;;;;;;1.23;0.40;;;;;;;13.17;74.02;102957.41;5033942;28;101170;-30
2022/10/06 08:27:27;;;;;;;10.05;0.75;;;;;;;13.19;74.18;102954.66;5035903;28;96887;-31
2022/10/06 08:29:53;;;;;;;1.75;0.45;;;;;;;13.26;74.44;102969.78;5034078;28;96620;-31
2022/10/06 08:32:19;;;;;;;2.80;0.68;;;;;;;13.26;74.88;102964.34;5035624;28;96741;-30
2022/10/06 08:34:46;;;;;;;6.28;0.60;;;;;;;13.31;74.18;102977.81;5033305;28;101277;-31
2022/10/06 08:37:11;;;;;;;4.50;0.40;;;;;;;13.33;74.55;102984.09;5033883;28;101010;-30
2022/10/06 08:39:36;;;;;;;8.88;0.50;;;;;;;13.36;74.46;102979.41;5034139;28;96563;-30
2022/10/06 08:42:02;;;;;;;2.38;0.47;;;;;;;13.36;74.10;102990.28;5034774;28;104769;-31
2022/10/06 08:44:33;;;;;;;4.47;0.50;;;;;;;13.36;74.23;102993.00;5034877;27;99399;-30
2022/10/06 08:47:04;;;;;;;4.73;0.70;;;;;;;13.38;74.41;102985.69;5035050;28;97881;-30
2022/10/06 08:49:45;;;;;;;3.75;0.75;;;;;;;13.43;74.28;102999.09;5034105;28;96641;-30
2022/10/06 08:52:20;;;;;;;0.68;0.47;;;;;;;13.52;73.68;102998.75;5034137;28;96869;-30
2022/10/06 08:55:07;;;;;;;1.77;0.50;;;;;;;13.58;73.36;102992.16;5033552;28;101311;-30
2022/10/06 08:57:53;;;;;;;5.05;0.50;;;;;;;13.68;73.15;103001.75;5034815;28;99392;-31
2022/10/06 09:00:19;;;;;;;3.50;0.30;;;;;;;13.70;73.10;103007.13;5034956;28;96653;-30
2022/10/06 09:02:47;;;;;;;2.88;0.63;;;;;;;13.80;73.32;103003.09;5034925;27;96809;-30
2022/10/06 09:05:18;;;;;;;7.80;0.65;;;;;;;13.87;72.81;103007.34;5033289;28;101101;-30
2022/10/06 09:07:57;;;;;;;2.33;0.47;;;;;;;13.92;72.65;103007.13;5033265;28;100795;-30
2022/10/06 09:10:50;;;;;;;3.55;0.50;;;;;;;14.03;72.69;103019.38;5033596;28;96609;-30
2022/10/06 09:13:29;;;;;;;3.13;0.55;;;;;;;14.10;72.04;103019.13;5035062;27;96754;-32
2022/10/06 09:16:00;;;;;;;4.68;0.38;;;;;;;14.10;72.27;103021.84;5032792;28;101132;-31
2022/10/06 09:18:37;;;;;;;1.33;0.60;;;;;;;14.16;72.01;103029.78;5033222;28;100726;-31
2022/10/06 09:21:10;;;;;;;4.22;0.60;;;;;;;14.23;71.97;103029.47;5033523;28;96670;-30
2022/10/06 09:23:48;;;;;;;2.63;0.38;;;;;;;14.27;72.21;103040.22;5033113;28;96627;-30
2022/10/06 09:26:21;;;;;;;4.43;0.65;;;;;;;14.27;72.20;103032.94;5032676;28;101057;-30
2022/10/06 09:28:48;;;;;;;3.33;0.65;;;;;;;14.33;71.71;103032.69;5034442;28;98018;-30
2022/10/06 09:31:22;;;;;;;4.25;0.50;;;;;;;14.48;71.21;103028.41;5033386;28;96694;-31
2022/10/06 09:33:52;;;;;;;3.92;0.55;;;;;;;14.68;71.07;103033.03;5033252;28;96913;-31
2022/10/06 09:36:17;;;;;;;3.05;0.52;;;;;;;14.99;69.33;103028.94;5034203;28;99603;-31
2022/10/06 09:38:54;;;;;;;1.08;0.50;;;;;;;15.05;68.04;103031.41;5032674;28;101322;-31
2022/10/06 09:41:25;;;;;;;2.88;0.47;;;;;;;15.06;67.76;103031.34;5033334;28;96643;-31
2022/10/06 09:43:57;;;;;;;1.65;0.60;;;;;;;15.19;67.71;103037.13;5035038;28;96736;-33
2022/10/06 09:46:30;;;;;;;1.58;0.63;;;;;;;15.17;67.31;103038.13;5032755;28;100775;-31
2022/10/06 09:49:16;;;;;;;3.92;0.88;;;;;;;15.32;65.97;103039.28;5034356;28;96892;-30
2022/10/06 09:51:58;;;;;;;5.72;0.82;;;;;;;15.70;66.88;103032.91;5032543;28;96558;-31
2022/10/06 09:54:23;;;;;;;0.90;0.45;;;;;;;16.08;64.95;103041.06;5033075;28;96705;-30
2022/10/06 09:56:49;;;;;;;4.93;0.70;;;;;;;16.34;63.44;103038.88;5034087;28;97966;-30
2022/10/06 09:59:20;;;;;;;1.95;0.65;;;;;;;16.58;62.80;103035.84;5034050;27;99175;-31
2022/10/06 10:01:56;;;;;;;1.47;0.40;;;;;;;16.80;61.83;103033.78;5033142;28;96718;-31
2022/10/06 10:04:29;;;;;;;1.08;0.38;;;;;;;17.04;62.28;103045.31;5034377;28;96757;-30
2022/10/06 10:07:14;;;;;;;1.75;0.57;;;;;;;17.29;61.47;103036.63;5033811;28;99498;-31
2022/10/06 10:09:40;;;;;;;6.53;0.65;;;;;;;17.50;61.14;103039.16;5032986;28;100651;-32
2022/10/06 10:14:51;;;;;;;1.00;0.35;;;;;;;17.89;60.49;103044.25;5033160;28;96423;-31
2022/10/06 10:17:32;;;;;;;1.58;0.52;;;;;;;18.13;59.67;103046.56;5031555;27;101145;-31
2022/10/06 10:20:00;;;;;;;0.95;0.38;;;;;;;18.21;59.50;103050.63;5032538;28;100822;-30
2022/10/06 10:22:33;;;;;;;4.13;0.90;;;;;;;18.40;59.65;103055.91;5032757;28;96669;-30
2022/10/06 10:25:36;;;;;;;3.03;0.50;;;;;;;18.56;59.01;103050.38;5032822;28;96766;-30
2022/10/06 10:28:14;;;;;;;1.58;0.60;;;;;;;18.64;57.76;103053.56;5033739;28;97909;-30
2022/10/06 10:30:53;;;;;;;2.97;0.52;;;;;;;18.75;57.99;103052.00;5035549;28;99439;-30
2022/10/06 10:33:44;;;;;;;1.58;0.45;;;;;;;18.74;55.18;103062.13;5036136;27;96559;-32
2022/10/06 10:36:13;;;;;;;5.13;0.75;;;;;;;18.72;56.07;103060.44;5036491;28;96723;-30
2022/10/06 10:38:41;;;;;;;5.75;0.82;;;;;;;18.76;54.39;103042.78;5018762;28;100518;-30
2022/10/06 10:41:19;;;;;;;4.00;0.80;;;;;;;18.87;54.40;103043.91;5037375;27;97255;-30
2022/10/06 10:43:55;;;;;;;3.80;0.50;;;;;;;18.96;54.21;103055.34;5034262;28;96679;-34
2022/10/06 10:46:33;;;;;;;2.78;0.50;;;;;;;19.18;54.05;103043.88;5035869;28;96781;-30
2022/10/06 10:49:26;;;;;;;1.30;0.43;;;;;;;19.23;53.45;103052.72;5036252;28;99002;-31
2022/10/06 10:51:54;;;;;;;3.25;0.50;;;;;;;19.15;53.79;103053.19;5035362;28;99209;-30
2022/10/06 10:54:33;;;;;;;5.57;0.93;;;;;;;19.02;55.00;103057.69;5034018;28;97191;-30
2022/10/06 10:56:59;;;;;;;2.55;0.50;;;;;;;18.85;56.87;103064.22;5034703;28;96891;-30
2022/10/06 10:59:38;;;;;;;0.93;0.40;;;;;;;18.70;56.43;103070.63;5034825;28;101089;-30
2022/10/06 11:02:18;;;;;;;1.77;0.57;;;;;;;18.84;55.82;103066.09;5035536;28;101305;-30
2022/10/06 11:04:49;;;;;;;2.97;0.50;;;;;;;19.06;55.94;103059.28;5035661;28;96603;-30
2022/10/06 11:07:22;;;;;;;3.75;0.25;;;;;;;19.24;54.15;103062.75;5035665;28;96638;-30
2022/10/06 11:10:04;;;;;;;3.95;0.32;;;;;;;19.41;52.61;103059.78;5034283;28;101095;-31
2022/10/06 11:13:09;;;;;;;4.32;0.88;;;;;;;19.45;53.31;103066.88;5035333;28;100930;-32
2022/10/06 11:15:49;;;;;;;4.03;0.50;;;;;;;19.42;53.06;103067.06;5035203;28;96918;-31
2022/10/06 11:18:44;;;;;;;1.75;0.25;;;;;;;19.46;53.06;103063.13;5036774;28;96761;-30
2022/10/06 11:21:13;;;;;;;2.03;0.45;;;;;;;19.65;52.04;103072.97;5032435;28;99211;-30
2022/10/06 11:23:58;;;;;;;5.72;0.47;;;;;;;19.38;52.91;103072.84;5034880;28;100884;-30
2022/10/06 11:26:30;;;;;;;2.05;0.30;;;;;;;19.05;53.87;103074.88;5035294;28;96831;-30
2022/10/06 11:29:23;;;;;;;1.25;0.30;;;;;;;18.87;53.58;103074.13;5036958;28;96504;-30
2022/10/06 11:32:16;;;;;;;2.20;0.40;;;;;;;18.70;54.54;103065.13;5034758;27;100992;-30
2022/10/06 11:34:43;;;;;;;2.45;0.52;;;;;;;18.69;55.39;103072.50;5034833;28;100833;-31
2022/10/06 11:37:33;;;;;;;3.15;0.63;;;;;;;18.75;54.50;103058.38;5034505;28;96550;-30
2022/10/06 11:40:19;;;;;;;4.70;0.90;;;;;;;19.00;53.33;103065.16;5036396;28;96713;-30
2022/10/06 11:43:03;;;;;;;2.85;0.52;;;;;;;18.95;53.28;103076.44;5034503;28;101390;-30
2022/10/06 11:45:53;;;;;;;2.83;0.45;;;;;;;18.76;53.84;103064.75;5034846;27;100687;-30
2022/10/06 11:48:32;;;;;;;1.85;0.30;;;;;;;19.02;54.79;103065.91;5036167;28;96488;-30